Warrensburg, MO

2:51 AM CST on December 18, 2014 (GMT -0600)
Skyhaven | Change Station
CLOSE
Current Station
Airport
Location: Warrensburg,
Elevation: 797 ft
Nearby Weather Stations
Active Advisory: Winter Weather Advisory

Elev 797 ft 38.78 °N, 93.80 °W | Updated 16 minutes ago

Snow
Snow
30 °F
Feels Like 27 °F
N
4
Wind Variable Wind from NE

Today
High -- | Low -- °F
--% Chance of Precip.
Yesterday
High -- | Low -- °F
Precip. -- in
7:27 AM 4:55 PM
Waning Crescent, 16% visible
Pressure 30.23 in
Visibility 3.0 miles
Clouds Scattered Clouds 400 ft
Scattered Clouds 2600 ft
Overcast 3800 ft
Windchill 27 °F
Dew Point 28 °F
Humidity 93%
Rainfall 0.06 in
Snow Depth Not available.
UV 0 out of 12
Pollen .10 out of 12
Air Quality Not available.
Flu Activity Not available.
METAR KRCM 180835Z AUTO 04003KT 3SM -SN SCT004 SCT026 OVC038 M01/M02 A3023 RMK AO2

More Conditions Fewer Conditions

Pressure 30.23 in
Visibility 3.0 miles
Clouds Scattered Clouds 400 ft
Scattered Clouds 2600 ft
Overcast 3800 ft
Windchill 27 °F
Dew Point 28 °F
Humidity 93%
Rainfall 0.06 in
Snow Depth Not available.
UV 0 out of 12
Pollen .10 out of 12
Air Quality Not available.
Flu Activity Not available.
METAR KRCM 180835Z AUTO 04003KT 3SM -SN SCT004 SCT026 OVC038 M01/M02 A3023 RMK AO2

More Conditions Fewer Conditions

10-Day Weather Forecast

Almanac

Astronomy

Dec. 18, 2014 Rise Set
Actual Time
Civil Twilight
Nautical Twilight
Astronomical Twilight
Moon
Length of Visible Light
Length of Day
Tomorrow will be .
, % of the Moon is Illuminated

Today's Extremes

State Highs State Lows

Community

WunderPhotos

Upload Photos

1,778,907 photos uploaded!

WunderBlogs® & News

Nearby

Air Quality

  Air Quality AQ Index Pollutant
Not available.

Snow Depth

Station Depth Elevation

Earthquake Activity

City Distance Mag. Time & Date
Minimum magnitude displayed is 2.5.

Coastal Water Temperatures

Place Temperature

Nearby Weather Stations